sensor_id;sensor_type;location;lat;lon;timestamp;P1;durP1;ratioP1;P2;durP2;ratioP2
53497;SDS011;39382;47.168;16.008;2023-05-01T00:00:09;4.22;;;3.75;;
53497;SDS011;39382;47.168;16.008;2023-05-01T00:02:35;4.05;;;3.60;;
53497;SDS011;39382;47.168;16.008;2023-05-01T00:05:01;4.50;;;3.45;;
53497;SDS011;39382;47.168;16.008;2023-05-01T00:07:28;3.25;;;2.95;;
53497;SDS011;39382;47.168;16.008;2023-05-01T00:09:55;5.47;;;3.30;;
53497;SDS011;39382;47.168;16.008;2023-05-01T00:12:22;4.97;;;3.60;;
53497;SDS011;39382;47.168;16.008;2023-05-01T00:14:48;4.10;;;3.42;;
53497;SDS011;39382;47.168;16.008;2023-05-01T00:17:14;4.25;;;3.67;;
53497;SDS011;39382;47.168;16.008;2023-05-01T00:19:40;4.35;;;3.03;;
53497;SDS011;39382;47.168;16.008;2023-05-01T00:22:06;5.13;;;2.92;;
53497;SDS011;39382;47.168;16.008;2023-05-01T00:24:32;8.25;;;3.53;;
53497;SDS011;39382;47.168;16.008;2023-05-01T00:26:58;3.45;;;3.15;;
53497;SDS011;39382;47.168;16.008;2023-05-01T00:29:23;6.55;;;3.70;;
53497;SDS011;39382;47.168;16.008;2023-05-01T00:31:49;6.35;;;3.40;;
53497;SDS011;39382;47.168;16.008;2023-05-01T00:34:15;5.55;;;3.30;;
53497;SDS011;39382;47.168;16.008;2023-05-01T00:36:41;5.63;;;3.83;;
53497;SDS011;39382;47.168;16.008;2023-05-01T00:39:06;3.63;;;2.97;;
53497;SDS011;39382;47.168;16.008;2023-05-01T00:41:33;3.10;;;2.72;;
53497;SDS011;39382;47.168;16.008;2023-05-01T00:43:59;5.65;;;3.55;;
53497;SDS011;39382;47.168;16.008;2023-05-01T00:46:25;3.25;;;2.90;;
53497;SDS011;39382;47.168;16.008;2023-05-01T00:48:52;3.08;;;2.35;;
53497;SDS011;39382;47.168;16.008;2023-05-01T00:51:18;3.90;;;2.42;;
53497;SDS011;39382;47.168;16.008;2023-05-01T00:53:45;5.45;;;2.13;;
53497;SDS011;39382;47.168;16.008;2023-05-01T00:56:11;3.05;;;2.53;;
53497;SDS011;39382;47.168;16.008;2023-05-01T00:58:37;3.03;;;2.63;;
53497;SDS011;39382;47.168;16.008;2023-05-01T01:01:03;3.75;;;3.05;;
53497;SDS011;39382;47.168;16.008;2023-05-01T01:03:33;4.47;;;2.70;;
53497;SDS011;39382;47.168;16.008;2023-05-01T01:06:23;4.13;;;2.90;;
53497;SDS011;39382;47.168;16.008;2023-05-01T01:08:54;5.43;;;3.05;;
53497;SDS011;39382;47.168;16.008;2023-05-01T01:16:49;4.47;;;2.97;;
53497;SDS011;39382;47.168;16.008;2023-05-01T01:22:11;4.22;;;3.40;;
53497;SDS011;39382;47.168;16.008;2023-05-01T01:32:58;6.20;;;3.72;;
53497;SDS011;39382;47.168;16.008;2023-05-01T01:36:01;3.65;;;2.72;;
53497;SDS011;39382;47.168;16.008;2023-05-01T01:38:54;5.15;;;3.35;;
53497;SDS011;39382;47.168;16.008;2023-05-01T01:41:32;5.25;;;3.42;;
53497;SDS011;39382;47.168;16.008;2023-05-01T01:44:02;3.72;;;3.30;;
53497;SDS011;39382;47.168;16.008;2023-05-01T01:46:32;5.25;;;3.50;;
53497;SDS011;39382;47.168;16.008;2023-05-01T01:49:03;3.55;;;3.05;;
53497;SDS011;39382;47.168;16.008;2023-05-01T01:51:32;3.75;;;3.20;;
53497;SDS011;39382;47.168;16.008;2023-05-01T01:54:00;4.88;;;3.53;;
53497;SDS011;39382;47.168;16.008;2023-05-01T01:56:28;4.10;;;3.30;;
53497;SDS011;39382;47.168;16.008;2023-05-01T01:58:54;6.47;;;3.67;;
53497;SDS011;39382;47.168;16.008;2023-05-01T02:01:22;6.00;;;3.45;;
53497;SDS011;39382;47.168;16.008;2023-05-01T02:03:49;4.38;;;3.35;;
53497;SDS011;39382;47.168;16.008;2023-05-01T02:06:17;5.93;;;3.13;;
53497;SDS011;39382;47.168;16.008;2023-05-01T02:08:44;5.03;;;3.50;;
53497;SDS011;39382;47.168;16.008;2023-05-01T02:11:12;4.70;;;3.30;;
53497;SDS011;39382;47.168;16.008;2023-05-01T02:13:39;7.20;;;3.47;;
53497;SDS011;39382;47.168;16.008;2023-05-01T02:16:06;3.53;;;2.88;;
53497;SDS011;39382;47.168;16.008;2023-05-01T02:18:32;4.70;;;3.25;;
53497;SDS011;39382;47.168;16.008;2023-05-01T02:20:59;4.60;;;3.38;;
53497;SDS011;39382;47.168;16.008;2023-05-01T02:23:27;5.80;;;3.13;;
53497;SDS011;39382;47.168;16.008;2023-05-01T02:25:55;3.88;;;2.92;;
53497;SDS011;39382;47.168;16.008;2023-05-01T02:28:23;6.93;;;3.83;;
53497;SDS011;39382;47.168;16.008;2023-05-01T02:30:51;8.27;;;3.65;;
53497;SDS011;39382;47.168;16.008;2023-05-01T02:33:17;3.58;;;2.75;;
53497;SDS011;39382;47.168;16.008;2023-05-01T02:35:43;3.03;;;2.72;;
53497;SDS011;39382;47.168;16.008;2023-05-01T02:38:11;7.75;;;3.78;;
53497;SDS011;39382;47.168;16.008;2023-05-01T02:40:37;6.88;;;3.20;;
53497;SDS011;39382;47.168;16.008;2023-05-01T02:43:05;5.45;;;3.42;;
53497;SDS011;39382;47.168;16.008;2023-05-01T02:45:34;4.60;;;2.97;;
53497;SDS011;39382;47.168;16.008;2023-05-01T02:48:02;5.05;;;3.70;;
53497;SDS011;39382;47.168;16.008;2023-05-01T02:50:30;4.85;;;3.05;;
53497;SDS011;39382;47.168;16.008;2023-05-01T02:52:57;8.23;;;3.90;;
53497;SDS011;39382;47.168;16.008;2023-05-01T02:55:24;3.10;;;2.80;;
53497;SDS011;39382;47.168;16.008;2023-05-01T02:57:50;6.32;;;3.80;;
53497;SDS011;39382;47.168;16.008;2023-05-01T03:00:16;4.68;;;3.00;;
53497;SDS011;39382;47.168;16.008;2023-05-01T03:02:42;4.97;;;3.05;;
53497;SDS011;39382;47.168;16.008;2023-05-01T03:05:08;4.50;;;3.05;;
53497;SDS011;39382;47.168;16.008;2023-05-01T03:07:34;4.22;;;3.55;;
53497;SDS011;39382;47.168;16.008;2023-05-01T03:10:01;4.55;;;3.42;;
53497;SDS011;39382;47.168;16.008;2023-05-01T03:12:31;4.13;;;3.35;;
53497;SDS011;39382;47.168;16.008;2023-05-01T03:14:57;3.47;;;3.17;;
53497;SDS011;39382;47.168;16.008;2023-05-01T03:17:23;4.28;;;3.40;;
53497;SDS011;39382;47.168;16.008;2023-05-01T03:19:49;6.22;;;4.40;;
53497;SDS011;39382;47.168;16.008;2023-05-01T03:22:15;4.85;;;3.75;;
53497;SDS011;39382;47.168;16.008;2023-05-01T03:24:41;6.65;;;4.38;;
53497;SDS011;39382;47.168;16.008;2023-05-01T03:27:07;4.55;;;3.70;;
53497;SDS011;39382;47.168;16.008;2023-05-01T03:29:33;8.45;;;4.55;;
53497;SDS011;39382;47.168;16.008;2023-05-01T03:31:59;10.20;;;4.65;;
53497;SDS011;39382;47.168;16.008;2023-05-01T03:34:25;9.60;;;5.47;;
53497;SDS011;39382;47.168;16.008;2023-05-01T03:36:51;11.85;;;7.03;;
53497;SDS011;39382;47.168;16.008;2023-05-01T03:39:17;10.23;;;7.03;;
53497;SDS011;39382;47.168;16.008;2023-05-01T03:41:43;9.52;;;5.63;;
53497;SDS011;39382;47.168;16.008;2023-05-01T03:44:09;6.28;;;3.63;;
53497;SDS011;39382;47.168;16.008;2023-05-01T03:46:35;4.53;;;3.28;;
53497;SDS011;39382;47.168;16.008;2023-05-01T03:49:00;6.90;;;3.50;;
53497;SDS011;39382;47.168;16.008;2023-05-01T03:51:26;4.90;;;3.15;;
53497;SDS011;39382;47.168;16.008;2023-05-01T03:53:52;4.55;;;3.42;;
53497;SDS011;39382;47.168;16.008;2023-05-01T03:56:20;6.13;;;3.45;;
53497;SDS011;39382;47.168;16.008;2023-05-01T03:58:46;4.07;;;3.28;;
53497;SDS011;39382;47.168;16.008;2023-05-01T04:01:12;3.85;;;3.00;;
53497;SDS011;39382;47.168;16.008;2023-05-01T04:03:38;5.60;;;3.17;;
53497;SDS011;39382;47.168;16.008;2023-05-01T04:06:04;6.40;;;3.75;;
53497;SDS011;39382;47.168;16.008;2023-05-01T04:08:30;5.13;;;3.42;;
53497;SDS011;39382;47.168;16.008;2023-05-01T04:10:56;6.50;;;2.88;;
53497;SDS011;39382;47.168;16.008;2023-05-01T04:13:21;4.20;;;3.30;;
53497;SDS011;39382;47.168;16.008;2023-05-01T04:15:47;3.83;;;3.13;;
53497;SDS011;39382;47.168;16.008;2023-05-01T04:18:12;4.82;;;3.30;;
53497;SDS011;39382;47.168;16.008;2023-05-01T04:20:38;5.65;;;3.50;;
53497;SDS011;39382;47.168;16.008;2023-05-01T04:23:06;3.60;;;3.20;;
53497;SDS011;39382;47.168;16.008;2023-05-01T04:25:34;6.68;;;5.32;;
53497;SDS011;39382;47.168;16.008;2023-05-01T04:28:00;7.70;;;4.00;;
53497;SDS011;39382;47.168;16.008;2023-05-01T04:30:26;5.40;;;3.50;;
53497;SDS011;39382;47.168;16.008;2023-05-01T04:32:51;4.60;;;4.15;;
53497;SDS011;39382;47.168;16.008;2023-05-01T04:35:18;4.57;;;3.60;;
53497;SDS011;39382;47.168;16.008;2023-05-01T04:37:43;6.53;;;2.97;;
53497;SDS011;39382;47.168;16.008;2023-05-01T04:40:10;3.60;;;3.25;;
53497;SDS011;39382;47.168;16.008;2023-05-01T04:42:36;7.10;;;3.97;;
53497;SDS011;39382;47.168;16.008;2023-05-01T04:45:01;6.10;;;3.00;;
53497;SDS011;39382;47.168;16.008;2023-05-01T04:47:28;9.32;;;4.90;;
53497;SDS011;39382;47.168;16.008;2023-05-01T04:49:54;4.95;;;3.85;;
53497;SDS011;39382;47.168;16.008;2023-05-01T04:52:19;6.05;;;3.30;;
53497;SDS011;39382;47.168;16.008;2023-05-01T04:54:45;4.03;;;2.90;;
53497;SDS011;39382;47.168;16.008;2023-05-01T04:57:10;4.25;;;3.80;;
53497;SDS011;39382;47.168;16.008;2023-05-01T04:59:36;5.13;;;3.83;;
53497;SDS011;39382;47.168;16.008;2023-05-01T05:02:02;4.43;;;3.92;;
53497;SDS011;39382;47.168;16.008;2023-05-01T05:04:28;3.95;;;3.25;;
53497;SDS011;39382;47.168;16.008;2023-05-01T05:06:54;3.67;;;2.70;;
53497;SDS011;39382;47.168;16.008;2023-05-01T05:09:19;5.95;;;3.20;;
53497;SDS011;39382;47.168;16.008;2023-05-01T05:11:45;4.57;;;3.75;;
53497;SDS011;39382;47.168;16.008;2023-05-01T05:14:11;4.65;;;3.47;;
53497;SDS011;39382;47.168;16.008;2023-05-01T05:16:36;4.75;;;2.85;;
53497;SDS011;39382;47.168;16.008;2023-05-01T05:19:02;4.82;;;3.53;;
53497;SDS011;39382;47.168;16.008;2023-05-01T05:21:27;4.45;;;2.97;;
53497;SDS011;39382;47.168;16.008;2023-05-01T05:23:53;3.22;;;2.90;;
53497;SDS011;39382;47.168;16.008;2023-05-01T05:26:19;3.88;;;3.28;;
53497;SDS011;39382;47.168;16.008;2023-05-01T05:28:44;6.22;;;3.67;;
53497;SDS011;39382;47.168;16.008;2023-05-01T05:31:10;5.07;;;2.47;;
53497;SDS011;39382;47.168;16.008;2023-05-01T05:33:35;2.88;;;2.58;;
53497;SDS011;39382;47.168;16.008;2023-05-01T05:36:01;4.10;;;3.13;;
53497;SDS011;39382;47.168;16.008;2023-05-01T05:38:27;5.93;;;3.40;;
53497;SDS011;39382;47.168;16.008;2023-05-01T05:40:53;2.80;;;2.55;;
53497;SDS011;39382;47.168;16.008;2023-05-01T05:43:19;4.78;;;2.97;;
53497;SDS011;39382;47.168;16.008;2023-05-01T05:45:45;3.75;;;3.20;;
53497;SDS011;39382;47.168;16.008;2023-05-01T05:48:10;2.97;;;2.67;;
53497;SDS011;39382;47.168;16.008;2023-05-01T05:50:36;3.92;;;3.50;;
53497;SDS011;39382;47.168;16.008;2023-05-01T05:53:02;6.30;;;3.03;;
53497;SDS011;39382;47.168;16.008;2023-05-01T05:55:27;8.35;;;3.20;;
53497;SDS011;39382;47.168;16.008;2023-05-01T05:57:53;3.40;;;2.63;;
53497;SDS011;39382;47.168;16.008;2023-05-01T06:00:19;5.43;;;2.80;;
53497;SDS011;39382;47.168;16.008;2023-05-01T06:02:44;6.72;;;3.40;;
53497;SDS011;39382;47.168;16.008;2023-05-01T06:05:10;4.35;;;2.97;;
53497;SDS011;39382;47.168;16.008;2023-05-01T06:07:36;4.38;;;2.60;;
53497;SDS011;39382;47.168;16.008;2023-05-01T06:10:02;3.80;;;3.13;;
53497;SDS011;39382;47.168;16.008;2023-05-01T06:12:30;4.60;;;2.92;;
53497;SDS011;39382;47.168;16.008;2023-05-01T06:14:59;10.38;;;3.08;;
53497;SDS011;39382;47.168;16.008;2023-05-01T06:17:25;4.15;;;3.58;;
53497;SDS011;39382;47.168;16.008;2023-05-01T06:19:50;8.30;;;4.15;;
53497;SDS011;39382;47.168;16.008;2023-05-01T06:22:20;5.70;;;3.90;;
53497;SDS011;39382;47.168;16.008;2023-05-01T06:24:46;3.20;;;2.80;;
53497;SDS011;39382;47.168;16.008;2023-05-01T06:27:11;4.03;;;2.95;;
53497;SDS011;39382;47.168;16.008;2023-05-01T06:29:37;5.38;;;2.65;;
53497;SDS011;39382;47.168;16.008;2023-05-01T06:32:03;4.70;;;3.47;;
53497;SDS011;39382;47.168;16.008;2023-05-01T06:34:29;6.85;;;2.70;;
53497;SDS011;39382;47.168;16.008;2023-05-01T06:36:55;8.50;;;2.90;;
53497;SDS011;39382;47.168;16.008;2023-05-01T06:39:21;3.50;;;2.65;;
53497;SDS011;39382;47.168;16.008;2023-05-01T06:41:47;5.20;;;2.75;;
53497;SDS011;39382;47.168;16.008;2023-05-01T06:44:13;4.45;;;2.90;;
53497;SDS011;39382;47.168;16.008;2023-05-01T06:46:39;3.70;;;2.53;;
53497;SDS011;39382;47.168;16.008;2023-05-01T06:49:04;3.17;;;2.47;;
53497;SDS011;39382;47.168;16.008;2023-05-01T06:51:30;2.83;;;2.60;;
53497;SDS011;39382;47.168;16.008;2023-05-01T06:53:56;6.20;;;2.92;;
53497;SDS011;39382;47.168;16.008;2023-05-01T06:56:22;4.78;;;2.80;;
53497;SDS011;39382;47.168;16.008;2023-05-01T06:58:48;3.65;;;2.67;;
53497;SDS011;39382;47.168;16.008;2023-05-01T07:01:14;3.05;;;2.72;;
53497;SDS011;39382;47.168;16.008;2023-05-01T07:03:40;6.90;;;2.58;;
53497;SDS011;39382;47.168;16.008;2023-05-01T07:06:06;4.32;;;3.85;;
53497;SDS011;39382;47.168;16.008;2023-05-01T07:08:32;4.28;;;2.63;;
53497;SDS011;39382;47.168;16.008;2023-05-01T07:10:57;6.30;;;2.75;;
53497;SDS011;39382;47.168;16.008;2023-05-01T07:13:23;2.42;;;2.22;;
53497;SDS011;39382;47.168;16.008;2023-05-01T07:15:49;3.20;;;2.60;;
53497;SDS011;39382;47.168;16.008;2023-05-01T07:18:14;3.22;;;2.55;;
53497;SDS011;39382;47.168;16.008;2023-05-01T07:20:41;8.27;;;2.55;;
53497;SDS011;39382;47.168;16.008;2023-05-01T07:23:07;3.97;;;2.65;;
53497;SDS011;39382;47.168;16.008;2023-05-01T07:25:34;3.78;;;2.70;;
53497;SDS011;39382;47.168;16.008;2023-05-01T07:28:01;3.65;;;2.65;;
53497;SDS011;39382;47.168;16.008;2023-05-01T07:30:29;4.35;;;2.83;;
53497;SDS011;39382;47.168;16.008;2023-05-01T07:32:56;3.33;;;2.42;;
53497;SDS011;39382;47.168;16.008;2023-05-01T07:35:23;5.38;;;2.78;;
53497;SDS011;39382;47.168;16.008;2023-05-01T07:37:48;3.63;;;3.05;;
53497;SDS011;39382;47.168;16.008;2023-05-01T07:40:18;3.25;;;2.45;;
53497;SDS011;39382;47.168;16.008;2023-05-01T07:42:45;4.28;;;2.75;;
53497;SDS011;39382;47.168;16.008;2023-05-01T07:45:10;5.55;;;2.50;;
53497;SDS011;39382;47.168;16.008;2023-05-01T07:47:36;3.58;;;2.45;;
53497;SDS011;39382;47.168;16.008;2023-05-01T07:50:02;3.08;;;2.35;;
53497;SDS011;39382;47.168;16.008;2023-05-01T07:52:28;5.22;;;2.63;;
53497;SDS011;39382;47.168;16.008;2023-05-01T07:54:54;4.10;;;2.60;;
53497;SDS011;39382;47.168;16.008;2023-05-01T07:57:20;4.55;;;2.47;;
53497;SDS011;39382;47.168;16.008;2023-05-01T07:59:47;3.78;;;2.75;;
53497;SDS011;39382;47.168;16.008;2023-05-01T08:02:17;5.88;;;2.78;;
53497;SDS011;39382;47.168;16.008;2023-05-01T08:04:42;5.60;;;3.17;;
53497;SDS011;39382;47.168;16.008;2023-05-01T08:07:10;4.78;;;4.15;;
53497;SDS011;39382;47.168;16.008;2023-05-01T08:09:35;2.33;;;2.13;;
53497;SDS011;39382;47.168;16.008;2023-05-01T08:12:01;23.90;;;3.13;;
53497;SDS011;39382;47.168;16.008;2023-05-01T08:14:27;15.07;;;7.85;;
53497;SDS011;39382;47.168;16.008;2023-05-01T08:16:53;4.78;;;3.30;;
53497;SDS011;39382;47.168;16.008;2023-05-01T08:19:19;4.45;;;2.75;;
53497;SDS011;39382;47.168;16.008;2023-05-01T08:21:45;5.43;;;3.67;;
53497;SDS011;39382;47.168;16.008;2023-05-01T08:24:11;2.97;;;2.15;;
53497;SDS011;39382;47.168;16.008;2023-05-01T08:26:37;3.65;;;2.70;;
53497;SDS011;39382;47.168;16.008;2023-05-01T08:29:02;2.00;;;1.70;;
53497;SDS011;39382;47.168;16.008;2023-05-01T08:31:28;5.03;;;2.45;;
53497;SDS011;39382;47.168;16.008;2023-05-01T08:33:54;3.10;;;2.45;;
53497;SDS011;39382;47.168;16.008;2023-05-01T08:36:19;3.53;;;2.38;;
53497;SDS011;39382;47.168;16.008;2023-05-01T08:38:45;4.88;;;1.95;;
53497;SDS011;39382;47.168;16.008;2023-05-01T08:41:14;3.15;;;2.00;;
53497;SDS011;39382;47.168;16.008;2023-05-01T08:43:41;4.03;;;3.22;;
53497;SDS011;39382;47.168;16.008;2023-05-01T08:46:07;3.40;;;1.95;;
53497;SDS011;39382;47.168;16.008;2023-05-01T08:48:35;2.97;;;2.38;;
53497;SDS011;39382;47.168;16.008;2023-05-01T08:51:04;5.13;;;2.38;;
53497;SDS011;39382;47.168;16.008;2023-05-01T08:53:30;5.43;;;3.22;;
53497;SDS011;39382;47.168;16.008;2023-05-01T08:55:57;2.92;;;2.40;;
53497;SDS011;39382;47.168;16.008;2023-05-01T08:58:24;5.95;;;2.50;;
53497;SDS011;39382;47.168;16.008;2023-05-01T09:00:52;2.55;;;2.00;;
53497;SDS011;39382;47.168;16.008;2023-05-01T09:03:21;2.70;;;2.22;;
53497;SDS011;39382;47.168;16.008;2023-05-01T09:05:47;3.10;;;1.67;;
53497;SDS011;39382;47.168;16.008;2023-05-01T09:08:14;2.00;;;1.85;;
53497;SDS011;39382;47.168;16.008;2023-05-01T09:10:41;2.78;;;1.90;;
53497;SDS011;39382;47.168;16.008;2023-05-01T09:13:10;2.42;;;1.42;;
53497;SDS011;39382;47.168;16.008;2023-05-01T09:15:36;6.68;;;2.10;;
53497;SDS011;39382;47.168;16.008;2023-05-01T09:18:02;1.67;;;1.58;;
53497;SDS011;39382;47.168;16.008;2023-05-01T09:20:28;2.08;;;1.80;;
53497;SDS011;39382;47.168;16.008;2023-05-01T09:22:54;2.47;;;2.10;;
53497;SDS011;39382;47.168;16.008;2023-05-01T09:28:04;1.88;;;1.55;;
53497;SDS011;39382;47.168;16.008;2023-05-01T09:30:31;2.90;;;1.77;;
53497;SDS011;39382;47.168;16.008;2023-05-01T09:35:30;1.80;;;1.63;;
53497;SDS011;39382;47.168;16.008;2023-05-01T09:37:57;1.67;;;1.58;;
53497;SDS011;39382;47.168;16.008;2023-05-01T09:40:25;2.33;;;2.00;;
53497;SDS011;39382;47.168;16.008;2023-05-01T09:42:52;2.28;;;1.85;;
53497;SDS011;39382;47.168;16.008;2023-05-01T09:45:20;1.42;;;1.33;;
53497;SDS011;39382;47.168;16.008;2023-05-01T09:47:47;2.22;;;1.50;;
53497;SDS011;39382;47.168;16.008;2023-05-01T09:50:32;1.55;;;1.45;;
53497;SDS011;39382;47.168;16.008;2023-05-01T09:53:02;2.10;;;1.48;;
53497;SDS011;39382;47.168;16.008;2023-05-01T09:55:29;2.50;;;1.80;;
53497;SDS011;39382;47.168;16.008;2023-05-01T09:57:55;4.20;;;1.63;;
53497;SDS011;39382;47.168;16.008;2023-05-01T10:00:22;1.40;;;1.30;;
53497;SDS011;39382;47.168;16.008;2023-05-01T10:02:49;1.60;;;1.48;;
53497;SDS011;39382;47.168;16.008;2023-05-01T10:05:15;3.28;;;1.52;;
53497;SDS011;39382;47.168;16.008;2023-05-01T10:07:55;1.90;;;1.60;;
53497;SDS011;39382;47.168;16.008;2023-05-01T10:10:23;4.47;;;1.77;;
53497;SDS011;39382;47.168;16.008;2023-05-01T10:12:49;1.88;;;1.50;;
53497;SDS011;39382;47.168;16.008;2023-05-01T10:15:15;3.05;;;1.52;;
53497;SDS011;39382;47.168;16.008;2023-05-01T10:17:42;1.80;;;1.67;;
53497;SDS011;39382;47.168;16.008;2023-05-01T10:20:11;2.13;;;1.95;;
53497;SDS011;39382;47.168;16.008;2023-05-01T10:22:40;1.60;;;1.40;;
53497;SDS011;39382;47.168;16.008;2023-05-01T10:25:07;1.20;;;1.10;;
53497;SDS011;39382;47.168;16.008;2023-05-01T10:27:34;3.10;;;1.65;;
53497;SDS011;39382;47.168;16.008;2023-05-01T10:30:02;3.10;;;1.50;;
53497;SDS011;39382;47.168;16.008;2023-05-01T10:32:31;2.45;;;1.52;;
53497;SDS011;39382;47.168;16.008;2023-05-01T10:34:59;1.50;;;1.35;;
53497;SDS011;39382;47.168;16.008;2023-05-01T10:39:59;2.88;;;1.45;;
53497;SDS011;39382;47.168;16.008;2023-05-01T10:45:45;2.22;;;1.63;;
53497;SDS011;39382;47.168;16.008;2023-05-01T10:48:57;2.00;;;1.35;;
53497;SDS011;39382;47.168;16.008;2023-05-01T10:51:07;2.53;;;1.65;;
53497;SDS011;39382;47.168;16.008;2023-05-01T10:53:35;4.07;;;1.33;;
53497;SDS011;39382;47.168;16.008;2023-05-01T10:56:01;1.98;;;1.27;;
53497;SDS011;39382;47.168;16.008;2023-05-01T11:03:52;3.85;;;2.85;;
53497;SDS011;39382;47.168;16.008;2023-05-01T11:06:18;2.08;;;1.83;;
53497;SDS011;39382;47.168;16.008;2023-05-01T11:08:44;2.50;;;1.60;;
53497;SDS011;39382;47.168;16.008;2023-05-01T11:19:05;1.55;;;1.30;;
53497;SDS011;39382;47.168;16.008;2023-05-01T11:21:34;3.40;;;1.70;;
53497;SDS011;39382;47.168;16.008;2023-05-01T11:24:01;3.20;;;1.38;;
53497;SDS011;39382;47.168;16.008;2023-05-01T11:26:28;1.85;;;1.38;;
53497;SDS011;39382;47.168;16.008;2023-05-01T11:28:56;2.45;;;1.35;;
53497;SDS011;39382;47.168;16.008;2023-05-01T11:31:24;1.85;;;1.70;;
53497;SDS011;39382;47.168;16.008;2023-05-01T11:33:50;3.88;;;1.58;;
53497;SDS011;39382;47.168;16.008;2023-05-01T11:36:18;2.17;;;1.65;;
53497;SDS011;39382;47.168;16.008;2023-05-01T11:38:48;2.10;;;1.20;;
53497;SDS011;39382;47.168;16.008;2023-05-01T11:41:21;2.88;;;1.58;;
53497;SDS011;39382;47.168;16.008;2023-05-01T11:46:30;1.48;;;1.38;;
53497;SDS011;39382;47.168;16.008;2023-05-01T11:48:57;1.23;;;1.13;;
53497;SDS011;39382;47.168;16.008;2023-05-01T11:51:25;4.57;;;2.40;;
53497;SDS011;39382;47.168;16.008;2023-05-01T11:56:31;1.30;;;1.20;;
53497;SDS011;39382;47.168;16.008;2023-05-01T11:58:58;5.85;;;1.17;;
53497;SDS011;39382;47.168;16.008;2023-05-01T12:04:00;1.60;;;1.45;;
53497;SDS011;39382;47.168;16.008;2023-05-01T12:06:43;2.67;;;1.67;;
53497;SDS011;39382;47.168;16.008;2023-05-01T12:09:10;1.30;;;1.30;;
53497;SDS011;39382;47.168;16.008;2023-05-01T12:11:40;2.45;;;1.65;;
53497;SDS011;39382;47.168;16.008;2023-05-01T12:14:06;1.50;;;1.30;;
53497;SDS011;39382;47.168;16.008;2023-05-01T12:16:33;2.00;;;1.40;;
53497;SDS011;39382;47.168;16.008;2023-05-01T12:18:59;2.03;;;1.63;;
53497;SDS011;39382;47.168;16.008;2023-05-01T12:21:27;1.90;;;1.45;;
53497;SDS011;39382;47.168;16.008;2023-05-01T12:23:52;1.00;;;1.00;;
53497;SDS011;39382;47.168;16.008;2023-05-01T12:26:22;1.23;;;1.13;;
53497;SDS011;39382;47.168;16.008;2023-05-01T12:28:55;0.93;;;0.93;;
53497;SDS011;39382;47.168;16.008;2023-05-01T12:31:23;1.35;;;1.25;;
53497;SDS011;39382;47.168;16.008;2023-05-01T12:33:57;0.98;;;0.98;;
53497;SDS011;39382;47.168;16.008;2023-05-01T12:36:30;2.70;;;1.20;;
53497;SDS011;39382;47.168;16.008;2023-05-01T12:39:01;1.38;;;1.25;;
53497;SDS011;39382;47.168;16.008;2023-05-01T12:44:23;2.42;;;1.33;;
53497;SDS011;39382;47.168;16.008;2023-05-01T12:46:55;1.45;;;1.25;;
53497;SDS011;39382;47.168;16.008;2023-05-01T12:49:31;4.47;;;1.25;;
53497;SDS011;39382;47.168;16.008;2023-05-01T12:52:00;1.67;;;1.20;;
53497;SDS011;39382;47.168;16.008;2023-05-01T12:54:34;2.25;;;1.25;;
53497;SDS011;39382;47.168;16.008;2023-05-01T12:57:08;2.00;;;1.35;;
53497;SDS011;39382;47.168;16.008;2023-05-01T12:59:36;4.65;;;1.15;;
53497;SDS011;39382;47.168;16.008;2023-05-01T13:02:07;2.13;;;1.30;;
53497;SDS011;39382;47.168;16.008;2023-05-01T13:04:39;3.03;;;1.00;;
53497;SDS011;39382;47.168;16.008;2023-05-01T13:07:15;2.95;;;1.30;;
53497;SDS011;39382;47.168;16.008;2023-05-01T13:09:53;2.33;;;1.27;;
53497;SDS011;39382;47.168;16.008;2023-05-01T13:12:21;1.98;;;1.73;;
53497;SDS011;39382;47.168;16.008;2023-05-01T13:14:48;4.30;;;1.60;;
53497;SDS011;39382;47.168;16.008;2023-05-01T13:17:20;2.05;;;1.27;;
53497;SDS011;39382;47.168;16.008;2023-05-01T13:19:51;2.47;;;1.25;;
53497;SDS011;39382;47.168;16.008;2023-05-01T13:22:36;2.13;;;1.63;;
53497;SDS011;39382;47.168;16.008;2023-05-01T13:25:14;2.42;;;1.13;;
53497;SDS011;39382;47.168;16.008;2023-05-01T13:27:48;1.60;;;1.27;;
53497;SDS011;39382;47.168;16.008;2023-05-01T13:30:17;2.33;;;1.67;;
53497;SDS011;39382;47.168;16.008;2023-05-01T13:32:46;0.93;;;0.93;;
53497;SDS011;39382;47.168;16.008;2023-05-01T13:35:20;4.40;;;1.25;;
53497;SDS011;39382;47.168;16.008;2023-05-01T13:37:47;5.20;;;1.13;;
53497;SDS011;39382;47.168;16.008;2023-05-01T13:40:13;1.48;;;1.20;;
53497;SDS011;39382;47.168;16.008;2023-05-01T13:42:38;1.50;;;1.40;;
53497;SDS011;39382;47.168;16.008;2023-05-01T13:45:06;1.73;;;1.20;;
53497;SDS011;39382;47.168;16.008;2023-05-01T13:47:32;3.22;;;1.50;;
53497;SDS011;39382;47.168;16.008;2023-05-01T13:50:00;2.08;;;1.30;;
53497;SDS011;39382;47.168;16.008;2023-05-01T13:52:25;1.20;;;1.10;;
53497;SDS011;39382;47.168;16.008;2023-05-01T13:54:52;0.70;;;0.70;;
53497;SDS011;39382;47.168;16.008;2023-05-01T13:57:20;2.60;;;1.30;;
53497;SDS011;39382;47.168;16.008;2023-05-01T13:59:46;1.13;;;0.90;;
53497;SDS011;39382;47.168;16.008;2023-05-01T14:02:27;1.33;;;1.00;;
53497;SDS011;39382;47.168;16.008;2023-05-01T14:04:53;1.55;;;1.25;;
53497;SDS011;39382;47.168;16.008;2023-05-01T14:07:20;1.23;;;0.98;;
53497;SDS011;39382;47.168;16.008;2023-05-01T14:09:57;1.67;;;0.85;;
53497;SDS011;39382;47.168;16.008;2023-05-01T14:12:27;0.93;;;0.90;;
53497;SDS011;39382;47.168;16.008;2023-05-01T14:14:54;1.45;;;0.95;;
53497;SDS011;39382;47.168;16.008;2023-05-01T14:17:30;2.25;;;1.10;;
53497;SDS011;39382;47.168;16.008;2023-05-01T14:19:57;1.02;;;1.02;;
53497;SDS011;39382;47.168;16.008;2023-05-01T14:22:24;1.63;;;1.52;;
53497;SDS011;39382;47.168;16.008;2023-05-01T14:25:07;2.05;;;1.50;;
53497;SDS011;39382;47.168;16.008;2023-05-01T14:27:50;0.80;;;0.80;;
53497;SDS011;39382;47.168;16.008;2023-05-01T14:30:38;2.55;;;0.95;;
53497;SDS011;39382;47.168;16.008;2023-05-01T14:33:04;1.67;;;1.33;;
53497;SDS011;39382;47.168;16.008;2023-05-01T14:35:35;3.70;;;1.20;;
53497;SDS011;39382;47.168;16.008;2023-05-01T14:38:11;1.05;;;0.93;;
53497;SDS011;39382;47.168;16.008;2023-05-01T14:40:39;1.73;;;1.15;;
53497;SDS011;39382;47.168;16.008;2023-05-01T14:43:05;1.60;;;1.15;;
53497;SDS011;39382;47.168;16.008;2023-05-01T14:45:33;1.85;;;1.35;;
53497;SDS011;39382;47.168;16.008;2023-05-01T14:48:00;1.00;;;0.80;;
53497;SDS011;39382;47.168;16.008;2023-05-01T14:50:26;2.25;;;1.13;;
53497;SDS011;39382;47.168;16.008;2023-05-01T14:52:52;1.35;;;1.25;;
53497;SDS011;39382;47.168;16.008;2023-05-01T14:55:20;1.00;;;1.00;;
53497;SDS011;39382;47.168;16.008;2023-05-01T14:57:53;1.83;;;1.23;;
53497;SDS011;39382;47.168;16.008;2023-05-01T15:00:21;2.35;;;1.17;;
53497;SDS011;39382;47.168;16.008;2023-05-01T15:02:47;2.90;;;1.77;;
53497;SDS011;39382;47.168;16.008;2023-05-01T15:05:13;1.42;;;1.35;;
53497;SDS011;39382;47.168;16.008;2023-05-01T15:07:39;1.33;;;1.08;;
53497;SDS011;39382;47.168;16.008;2023-05-01T15:10:05;1.77;;;1.00;;
53497;SDS011;39382;47.168;16.008;2023-05-01T15:12:31;1.77;;;1.20;;
53497;SDS011;39382;47.168;16.008;2023-05-01T15:14:56;1.67;;;1.45;;
53497;SDS011;39382;47.168;16.008;2023-05-01T15:17:22;1.60;;;0.88;;
53497;SDS011;39382;47.168;16.008;2023-05-01T15:19:47;1.27;;;1.13;;
53497;SDS011;39382;47.168;16.008;2023-05-01T15:22:13;2.08;;;0.82;;
53497;SDS011;39382;47.168;16.008;2023-05-01T15:24:39;1.88;;;1.17;;
53497;SDS011;39382;47.168;16.008;2023-05-01T15:27:05;3.60;;;1.25;;